createdAt,value
2023-04-09T00:00:18.827Z,67.15
2023-04-09T00:02:54.019Z,67.24
2023-04-09T00:05:23.880Z,67.85
2023-04-09T00:07:55.201Z,68.00
2023-04-09T00:10:34.561Z,68.63
2023-04-09T00:13:03.826Z,68.07
2023-04-09T00:15:32.985Z,67.74
2023-04-09T00:18:02.241Z,67.97
2023-04-09T00:20:31.578Z,67.98
2023-04-09T00:23:03.722Z,68.00
2023-04-09T00:25:33.157Z,67.91
2023-04-09T00:28:02.208Z,67.55
2023-04-09T00:30:31.616Z,67.35
2023-04-09T00:33:01.288Z,67.34
2023-04-09T00:35:30.998Z,67.71
2023-04-09T00:38:00.467Z,67.70
2023-04-09T00:40:37.800Z,69.58
2023-04-09T00:43:07.418Z,68.72
2023-04-09T00:45:36.857Z,68.90
2023-04-09T00:48:06.527Z,69.42
2023-04-09T00:50:36.074Z,69.52
2023-04-09T00:53:06.721Z,69.65
2023-04-09T00:55:38.480Z,70.43
2023-04-09T00:58:08.129Z,70.16
2023-04-09T01:00:37.639Z,70.13
2023-04-09T01:03:08.950Z,70.54
2023-04-09T01:05:46.422Z,70.59
2023-04-09T01:08:30.769Z,70.79
2023-04-09T01:11:18.288Z,71.29
2023-04-09T01:13:56.402Z,70.46
2023-04-09T01:16:26.011Z,70.00
2023-04-09T01:19:01.867Z,70.50
2023-04-09T01:21:34.128Z,70.18
2023-04-09T01:24:18.240Z,70.57
2023-04-09T01:27:03.952Z,70.21
2023-04-09T01:29:59.795Z,70.10
2023-04-09T01:32:32.109Z,70.21
2023-04-09T01:35:02.784Z,70.70
2023-04-09T01:37:33.336Z,70.40
2023-04-09T01:40:04.531Z,70.81
2023-04-09T01:42:34.894Z,71.00
2023-04-09T01:45:13.011Z,71.33
2023-04-09T01:47:43.328Z,70.92
2023-04-09T01:50:22.967Z,71.47
2023-04-09T01:52:57.543Z,70.74
2023-04-09T01:55:26.806Z,70.49
2023-04-09T01:57:56.184Z,70.40
2023-04-09T02:00:33.265Z,70.91
2023-04-09T02:03:10.110Z,70.97
2023-04-09T02:08:26.604Z,70.90
2023-04-09T02:11:00.738Z,71.20
2023-04-09T02:13:37.382Z,70.76
2023-04-09T02:16:11.226Z,71.10
2023-04-09T02:18:40.549Z,70.93
2023-04-09T02:21:15.702Z,71.24
2023-04-09T02:23:45.266Z,70.80
2023-04-09T02:26:14.428Z,71.28
2023-04-09T02:28:43.721Z,71.31
2023-04-09T02:31:25.945Z,72.17
2023-04-09T02:36:35.149Z,71.88
2023-04-09T02:39:04.777Z,72.07
2023-04-09T02:41:34.161Z,72.26
2023-04-09T02:44:03.534Z,72.32
2023-04-09T02:46:35.123Z,72.14
2023-04-09T02:49:10.112Z,72.78
2023-04-09T02:51:39.533Z,72.34
2023-04-09T02:54:08.830Z,72.07
2023-04-09T02:56:38.102Z,72.01
2023-04-09T02:59:07.589Z,72.18
2023-04-09T03:01:44.767Z,72.12
2023-04-09T03:04:14.863Z,72.01
2023-04-09T03:06:44.539Z,71.62
2023-04-09T03:09:13.763Z,72.07
2023-04-09T03:11:42.964Z,72.12
2023-04-09T03:14:12.253Z,72.09
2023-04-09T03:16:43.440Z,71.66
2023-04-09T03:19:12.633Z,71.19
2023-04-09T03:21:42.108Z,71.13
2023-04-09T03:24:16.400Z,70.69
2023-04-09T03:26:46.004Z,70.74
2023-04-09T03:29:17.404Z,70.95
2023-04-09T03:31:48.915Z,71.25
2023-04-09T03:34:25.071Z,71.17
2023-04-09T03:36:57.362Z,70.90
2023-04-09T03:39:32.022Z,71.22
2023-04-09T03:42:01.436Z,71.65
2023-04-09T03:44:36.072Z,71.67
2023-04-09T03:47:23.714Z,71.62
2023-04-09T03:49:53.751Z,71.39
2023-04-09T03:52:27.273Z,71.06
2023-04-09T03:55:06.077Z,71.22
2023-04-09T03:57:35.449Z,70.93
2023-04-09T04:00:06.786Z,70.57
2023-04-09T04:02:55.203Z,70.07
2023-04-09T04:05:44.549Z,70.15
2023-04-09T04:08:17.184Z,69.29
2023-04-09T04:13:22.649Z,69.38
2023-04-09T04:15:57.805Z,69.43
2023-04-09T04:18:29.104Z,68.78
2023-04-09T04:21:08.573Z,68.78
2023-04-09T04:23:37.867Z,68.45
2023-04-09T04:26:19.349Z,68.33
2023-04-09T04:28:55.399Z,67.55
2023-04-09T04:31:39.148Z,67.53
2023-04-09T04:34:10.377Z,67.04
2023-04-09T04:36:48.504Z,66.91
2023-04-09T04:39:19.126Z,66.93
2023-04-09T04:42:03.203Z,66.92
2023-04-09T04:44:32.839Z,66.43
2023-04-09T04:47:18.548Z,66.04
2023-04-09T04:49:51.213Z,65.18
2023-04-09T04:52:26.079Z,65.18
2023-04-09T04:54:56.704Z,65.03
2023-04-09T04:57:27.554Z,64.80
2023-04-09T04:59:57.325Z,64.72
2023-04-09T05:02:26.679Z,64.85
2023-04-09T05:05:18.541Z,64.96
2023-04-09T05:07:53.580Z,64.97
2023-04-09T05:10:28.754Z,64.99
2023-04-09T05:13:04.402Z,64.65
2023-04-09T05:15:43.437Z,64.29
2023-04-09T05:18:13.017Z,64.14
2023-04-09T05:20:44.520Z,63.74
2023-04-09T05:23:14.022Z,63.32
2023-04-09T05:25:52.779Z,63.11
2023-04-09T05:28:36.157Z,63.08
2023-04-09T05:31:12.912Z,62.65
2023-04-09T05:33:48.190Z,62.42
2023-04-09T05:36:27.608Z,61.59
2023-04-09T05:38:57.260Z,60.93
2023-04-09T05:41:26.650Z,59.94
2023-04-09T05:44:16.248Z,59.54
2023-04-09T05:46:46.225Z,59.03
2023-04-09T05:49:24.433Z,58.84
2023-04-09T05:51:58.699Z,57.94
2023-04-09T05:54:38.861Z,57.84
2023-04-09T05:57:11.091Z,58.08
2023-04-09T06:02:25.657Z,56.93
2023-04-09T06:04:57.027Z,55.98
2023-04-09T06:07:40.505Z,54.72
2023-04-09T06:10:11.033Z,54.07
2023-04-09T06:12:41.598Z,53.85
2023-04-09T06:15:12.532Z,52.61
2023-04-09T06:17:48.126Z,52.19
2023-04-09T06:20:17.573Z,51.48
2023-04-09T06:22:48.731Z,51.38
2023-04-09T06:25:24.720Z,50.92
2023-04-09T06:30:31.507Z,51.40
2023-04-09T06:33:00.780Z,51.17
2023-04-09T06:38:12.059Z,50.00
2023-04-09T06:40:47.169Z,49.32
2023-04-09T06:43:16.303Z,48.98
2023-04-09T06:45:51.205Z,49.23
2023-04-09T06:48:20.490Z,48.51
2023-04-09T06:50:49.678Z,49.00
2023-04-09T06:53:26.171Z,48.19
2023-04-09T06:55:57.135Z,48.98
2023-04-09T06:58:26.529Z,48.68
2023-04-09T07:00:56.046Z,48.87
2023-04-09T07:03:27.520Z,49.10
2023-04-09T07:05:57.318Z,48.78
2023-04-09T07:08:40.238Z,48.73
2023-04-09T07:11:10.741Z,49.02
2023-04-09T07:13:39.969Z,49.32
2023-04-09T07:16:15.894Z,49.17
2023-04-09T07:18:45.162Z,49.51
2023-04-09T07:21:14.365Z,49.30
2023-04-09T07:23:45.564Z,49.02
2023-04-09T07:26:20.062Z,48.46
2023-04-09T07:28:49.366Z,47.22
2023-04-09T07:31:18.820Z,46.68
2023-04-09T07:33:48.143Z,45.76
2023-04-09T07:36:17.350Z,44.38
2023-04-09T07:38:48.532Z,44.21
2023-04-09T07:41:17.946Z,43.82
2023-04-09T07:43:47.302Z,43.78
2023-04-09T07:46:21.570Z,43.80
2023-04-09T07:48:52.005Z,44.09
2023-04-09T07:51:42.819Z,43.42
2023-04-09T07:54:21.507Z,43.16
2023-04-09T07:56:51.168Z,43.79
2023-04-09T07:59:27.573Z,43.39
2023-04-09T08:01:57.174Z,43.21
2023-04-09T08:04:27.504Z,42.10
2023-04-09T08:06:56.832Z,41.48
2023-04-09T08:09:52.953Z,40.28
2023-04-09T08:12:22.372Z,41.36
2023-04-09T08:14:52.283Z,42.01
2023-04-09T08:17:21.834Z,42.19
2023-04-09T08:19:51.597Z,41.76
2023-04-09T08:22:25.948Z,41.74
2023-04-09T08:25:11.672Z,40.83
2023-04-09T08:27:46.525Z,40.78
2023-04-09T08:30:16.919Z,40.41
2023-04-09T08:32:48.195Z,40.76
2023-04-09T08:35:17.763Z,41.08
2023-04-09T08:37:47.330Z,40.66
2023-04-09T08:43:16.534Z,41.02
2023-04-09T08:45:47.149Z,41.67
2023-04-09T08:48:16.723Z,41.20
2023-04-09T08:51:03.062Z,40.53
2023-04-09T08:53:38.678Z,40.60
2023-04-09T08:56:10.212Z,39.77
2023-04-09T08:58:46.593Z,39.60
2023-04-09T09:04:05.233Z,39.17
2023-04-09T09:06:36.586Z,38.98
2023-04-09T09:09:10.274Z,39.17
2023-04-09T09:11:42.960Z,39.11
2023-04-09T09:14:13.692Z,39.50
2023-04-09T09:16:49.476Z,39.68
2023-04-09T09:19:33.346Z,40.17
2023-04-09T09:22:05.957Z,39.68
2023-04-09T09:24:35.831Z,39.58
2023-04-09T09:27:12.019Z,39.37
2023-04-09T09:29:44.834Z,39.26
2023-04-09T09:35:06.536Z,39.76
2023-04-09T09:37:36.213Z,39.42
2023-04-09T09:40:12.280Z,39.83
2023-04-09T09:42:57.873Z,39.92
2023-04-09T09:45:27.612Z,40.03
2023-04-09T09:47:57.053Z,39.60
2023-04-09T09:50:33.750Z,39.52
2023-04-09T09:53:10.640Z,39.57
2023-04-09T09:55:42.045Z,39.52
2023-04-09T09:58:18.843Z,39.19
2023-04-09T10:00:51.095Z,39.68
2023-04-09T10:03:25.273Z,39.24
2023-04-09T10:05:56.142Z,39.57
2023-04-09T10:08:25.768Z,39.19
2023-04-09T10:11:15.011Z,39.59
2023-04-09T10:13:57.003Z,39.13
2023-04-09T10:16:26.809Z,39.24
2023-04-09T10:18:57.063Z,39.11
2023-04-09T10:21:37.531Z,39.20
2023-04-09T10:24:13.733Z,38.91
2023-04-09T10:26:44.737Z,39.07
2023-04-09T10:29:17.924Z,38.75
2023-04-09T10:32:02.076Z,38.61
2023-04-09T10:34:32.964Z,38.27
2023-04-09T10:37:02.425Z,38.33
2023-04-09T10:39:36.576Z,38.20
2023-04-09T10:42:16.443Z,37.60
2023-04-09T10:44:48.203Z,37.50
2023-04-09T10:47:32.791Z,38.07
2023-04-09T10:50:17.839Z,36.12
2023-04-09T10:52:47.450Z,35.94
2023-04-09T10:55:38.435Z,35.11
2023-04-09T10:58:11.331Z,35.12
2023-04-09T11:00:52.382Z,34.48
2023-04-09T11:03:27.662Z,34.60
2023-04-09T11:06:02.028Z,34.34
2023-04-09T11:08:33.059Z,33.98
2023-04-09T11:11:08.489Z,34.00
2023-04-09T11:13:38.059Z,33.78
2023-04-09T11:16:09.440Z,32.80
2023-04-09T11:18:43.928Z,32.98
2023-04-09T11:21:14.322Z,32.54
2023-04-09T11:23:54.183Z,33.24
2023-04-09T11:26:26.343Z,33.03
2023-04-09T11:28:59.273Z,33.11
2023-04-09T11:31:37.663Z,32.76
2023-04-09T11:34:07.164Z,33.43
2023-04-09T11:36:37.617Z,33.78
2023-04-09T11:39:07.155Z,34.11
2023-04-09T11:41:36.763Z,33.93
2023-04-09T11:44:06.193Z,33.97
2023-04-09T11:46:42.912Z,34.68
2023-04-09T11:49:13.520Z,34.70
2023-04-09T11:51:42.996Z,35.18
2023-04-09T11:54:14.286Z,35.08
2023-04-09T11:56:43.590Z,35.40
2023-04-09T11:59:16.242Z,35.50
2023-04-09T12:04:27.497Z,35.51
2023-04-09T12:09:34.241Z,36.50
2023-04-09T12:12:03.410Z,36.80
2023-04-09T12:14:32.663Z,36.51
2023-04-09T12:17:10.734Z,36.16
2023-04-09T12:19:40.089Z,36.40
2023-04-09T12:22:09.287Z,36.07
2023-04-09T12:24:38.618Z,36.00
2023-04-09T12:27:07.788Z,35.98
2023-04-09T12:29:37.131Z,35.49
2023-04-09T12:32:08.596Z,35.66
2023-04-09T12:34:37.882Z,35.71
2023-04-09T12:37:07.099Z,35.95
2023-04-09T12:39:51.525Z,36.42
2023-04-09T12:42:21.215Z,36.44
2023-04-09T12:52:29.452Z,36.84
2023-04-09T12:55:00.306Z,36.94
2023-04-09T12:57:34.701Z,37.18
2023-04-09T13:00:04.332Z,37.84
2023-04-09T13:02:34.616Z,38.49
2023-04-09T13:05:37.753Z,38.13
2023-04-09T13:08:22.114Z,38.71
2023-04-09T13:10:51.545Z,38.97
2023-04-09T13:13:21.140Z,38.43
2023-04-09T13:15:50.654Z,38.42
2023-04-09T13:18:19.957Z,38.71
2023-04-09T13:20:55.829Z,38.24
2023-04-09T13:23:27.284Z,38.73
2023-04-09T13:25:56.970Z,38.51
2023-04-09T13:28:26.643Z,37.96
2023-04-09T13:31:19.983Z,37.87
2023-04-09T13:33:49.284Z,37.66
2023-04-09T13:36:18.444Z,37.27
2023-04-09T13:41:36.442Z,36.46
2023-04-09T13:44:11.560Z,36.43
2023-04-09T13:46:41.140Z,36.91
2023-04-09T13:49:10.362Z,36.52
2023-04-09T13:51:40.063Z,36.48
2023-04-09T13:54:11.302Z,35.91
2023-04-09T13:56:41.483Z,36.12
2023-04-09T13:59:10.649Z,36.09
2023-04-09T14:01:40.558Z,36.59
2023-04-09T14:04:10.957Z,36.17
2023-04-09T14:06:40.203Z,36.39
2023-04-09T14:09:12.161Z,36.36
2023-04-09T14:11:41.674Z,37.13
2023-04-09T14:14:16.379Z,36.58
2023-04-09T14:16:45.598Z,37.18
2023-04-09T14:19:14.926Z,37.29
2023-04-09T14:21:44.320Z,37.67
2023-04-09T14:24:15.577Z,37.97
2023-04-09T14:26:50.330Z,37.70
2023-04-09T14:29:19.616Z,38.03
2023-04-09T14:31:55.338Z,37.93
2023-04-09T14:34:26.468Z,37.94
2023-04-09T14:36:55.755Z,38.18
2023-04-09T14:39:31.882Z,37.98
2023-04-09T14:42:01.414Z,37.86
2023-04-09T14:44:31.383Z,37.89
2023-04-09T14:47:06.112Z,38.28
2023-04-09T14:49:40.384Z,38.43
2023-04-09T14:52:14.994Z,38.69
2023-04-09T14:54:46.135Z,38.35
2023-04-09T14:57:20.872Z,38.79
2023-04-09T14:59:50.153Z,38.53
2023-04-09T15:02:19.647Z,38.79
2023-04-09T15:04:49.273Z,38.83
2023-04-09T15:07:19.021Z,39.31
2023-04-09T15:09:50.232Z,39.17
2023-04-09T15:12:19.956Z,39.62
2023-04-09T15:14:49.855Z,39.47
2023-04-09T15:17:19.154Z,39.64
2023-04-09T15:19:48.686Z,40.03
2023-04-09T15:22:18.098Z,39.74
2023-04-09T15:24:52.427Z,39.72
2023-04-09T15:27:23.738Z,39.70
2023-04-09T15:29:53.217Z,40.02
2023-04-09T15:32:23.078Z,39.61
2023-04-09T15:34:52.549Z,40.13
2023-04-09T15:37:23.751Z,40.08
2023-04-09T15:39:53.220Z,40.59
2023-04-09T15:42:25.527Z,40.37
2023-04-09T15:44:54.823Z,40.77
2023-04-09T15:47:24.148Z,40.65
2023-04-09T15:49:59.273Z,40.45
2023-04-09T15:52:28.640Z,40.88
2023-04-09T15:54:57.807Z,40.48
2023-04-09T15:57:29.222Z,40.32
2023-04-09T15:59:58.625Z,40.36
2023-04-09T16:02:27.925Z,40.96
2023-04-09T16:04:57.562Z,40.59
2023-04-09T16:07:31.890Z,40.98
2023-04-09T16:10:07.091Z,41.64
2023-04-09T16:12:38.631Z,41.00
2023-04-09T16:15:12.100Z,40.53
2023-04-09T16:17:47.404Z,41.52
2023-04-09T16:20:16.906Z,40.98
2023-04-09T16:22:46.078Z,41.14
2023-04-09T16:25:15.264Z,43.35
2023-04-09T16:27:46.530Z,44.19
2023-04-09T16:30:15.945Z,44.39
2023-04-09T16:32:45.217Z,45.04
2023-04-09T16:35:14.426Z,46.50
2023-04-09T16:37:43.622Z,47.02
2023-04-09T16:40:13.064Z,47.94
2023-04-09T16:42:42.238Z,48.17
2023-04-09T16:45:14.065Z,47.56
2023-04-09T16:47:51.418Z,46.89
2023-04-09T16:50:21.985Z,46.93
2023-04-09T16:52:51.309Z,47.02
2023-04-09T16:55:21.186Z,48.46
2023-04-09T16:57:56.759Z,49.42
2023-04-09T17:00:29.344Z,48.71
2023-04-09T17:05:48.366Z,49.02
2023-04-09T17:08:23.823Z,48.93
2023-04-09T17:11:01.929Z,49.68
2023-04-09T17:13:37.324Z,51.02
2023-04-09T17:16:13.118Z,51.17
2023-04-09T17:18:42.395Z,50.95
2023-04-09T17:21:12.149Z,51.30
2023-04-09T17:23:42.306Z,51.02
2023-04-09T17:26:17.466Z,51.63
2023-04-09T17:28:46.737Z,51.69
2023-04-09T17:31:18.839Z,51.22
2023-04-09T17:33:48.978Z,51.41
2023-04-09T17:36:24.559Z,51.56
2023-04-09T17:38:56.049Z,52.15
2023-04-09T17:41:32.339Z,51.84
2023-04-09T17:44:01.590Z,52.46
2023-04-09T17:46:33.058Z,52.80
2023-04-09T17:49:02.374Z,52.71
2023-04-09T17:51:31.739Z,53.01
2023-04-09T17:54:11.535Z,52.85
2023-04-09T17:56:40.830Z,53.20
2023-04-09T17:59:10.238Z,53.81
2023-04-09T18:01:41.686Z,54.17
2023-04-09T18:04:11.273Z,54.32
2023-04-09T18:06:40.856Z,54.53
2023-04-09T18:09:15.576Z,54.39
2023-04-09T18:11:54.466Z,55.16
2023-04-09T18:14:24.743Z,54.70
2023-04-09T18:17:01.498Z,55.45
2023-04-09T18:19:31.084Z,55.13
2023-04-09T18:22:00.329Z,54.00
2023-04-09T18:24:29.953Z,53.82
2023-04-09T18:27:07.032Z,54.02
2023-04-09T18:32:12.806Z,53.22
2023-04-09T18:34:42.026Z,53.54
2023-04-09T18:37:11.207Z,53.38
2023-04-09T18:39:40.642Z,52.85
2023-04-09T18:42:09.713Z,53.23
2023-04-09T18:44:44.330Z,53.47
2023-04-09T18:47:15.601Z,52.25
2023-04-09T18:49:44.977Z,52.11
2023-04-09T18:52:14.257Z,52.36
2023-04-09T18:54:43.560Z,51.41
2023-04-09T18:57:16.703Z,51.05
2023-04-09T18:59:48.243Z,50.96
2023-04-09T19:02:24.809Z,50.75
2023-04-09T19:05:00.538Z,50.82
2023-04-09T19:07:30.060Z,51.29
2023-04-09T19:09:59.307Z,51.12
2023-04-09T19:12:28.867Z,51.14
2023-04-09T19:15:00.063Z,51.44
2023-04-09T19:17:31.829Z,51.02
2023-04-09T19:20:06.143Z,51.61
2023-04-09T19:22:35.319Z,51.72
2023-04-09T19:25:04.556Z,50.99
2023-04-09T19:27:39.228Z,51.03
2023-04-09T19:30:09.820Z,50.81
2023-04-09T19:32:41.464Z,50.89
2023-04-09T19:35:15.437Z,50.59
2023-04-09T19:37:44.675Z,51.28
2023-04-09T19:40:16.524Z,51.85
2023-04-09T19:42:45.902Z,52.31
2023-04-09T19:45:15.362Z,52.12
2023-04-09T19:47:46.670Z,52.54
2023-04-09T19:50:21.098Z,52.65
2023-04-09T19:52:50.327Z,53.24
2023-04-09T19:55:19.756Z,52.71
2023-04-09T19:57:49.270Z,52.88
2023-04-09T20:00:18.555Z,53.02
2023-04-09T20:02:49.883Z,53.00
2023-04-09T20:05:21.006Z,53.06
2023-04-09T20:07:51.405Z,52.64
2023-04-09T20:10:30.722Z,52.75
2023-04-09T20:13:01.913Z,52.96
2023-04-09T20:15:31.540Z,53.07
2023-04-09T20:18:03.089Z,53.18
2023-04-09T20:20:32.730Z,52.78
2023-04-09T20:23:01.957Z,53.44
2023-04-09T20:25:34.584Z,53.41
2023-04-09T20:28:04.443Z,53.57
2023-04-09T20:30:33.916Z,53.57
2023-04-09T20:33:11.769Z,53.48
2023-04-09T20:35:46.093Z,52.82
2023-04-09T20:38:20.171Z,52.77
2023-04-09T20:40:51.557Z,52.68
2023-04-09T20:43:21.276Z,52.28
2023-04-09T20:45:50.685Z,52.31
2023-04-09T20:48:21.825Z,52.15
2023-04-09T20:50:52.048Z,52.27
2023-04-09T20:53:21.627Z,52.29
2023-04-09T20:55:51.729Z,52.15
2023-04-09T20:58:27.158Z,52.29
2023-04-09T21:01:06.465Z,51.99
2023-04-09T21:03:38.206Z,52.70
2023-04-09T21:06:08.638Z,52.25
2023-04-09T21:08:42.288Z,52.51
2023-04-09T21:11:11.596Z,52.53
2023-04-09T21:13:53.845Z,53.15
2023-04-09T21:16:25.757Z,52.81
2023-04-09T21:18:57.004Z,53.07
2023-04-09T21:21:28.118Z,53.07
2023-04-09T21:23:57.509Z,52.82
2023-04-09T21:26:26.832Z,53.12
2023-04-09T21:28:56.265Z,53.20
2023-04-09T21:31:25.592Z,53.10
2023-04-09T21:33:56.676Z,52.99
2023-04-09T21:36:27.968Z,53.42
2023-04-09T21:38:57.220Z,52.92
2023-04-09T21:41:26.757Z,53.73
2023-04-09T21:43:56.329Z,53.78
2023-04-09T21:46:25.889Z,54.00
2023-04-09T21:48:58.111Z,53.94
2023-04-09T21:51:32.482Z,53.80
2023-04-09T21:54:06.425Z,53.88
2023-04-09T21:56:36.393Z,53.51
2023-04-09T21:59:05.637Z,53.78
2023-04-09T22:01:35.465Z,53.56
2023-04-09T22:06:41.753Z,53.10
2023-04-09T22:09:17.233Z,53.13
2023-04-09T22:11:47.122Z,52.69
2023-04-09T22:14:16.347Z,52.54
2023-04-09T22:16:45.778Z,52.57
2023-04-09T22:19:21.861Z,52.27
2023-04-09T22:21:51.392Z,51.68
2023-04-09T22:24:26.226Z,51.80
2023-04-09T22:26:55.626Z,50.90
2023-04-09T22:29:24.695Z,50.76
2023-04-09T22:31:53.999Z,50.55
2023-04-09T22:34:26.438Z,50.19
2023-04-09T22:36:55.679Z,50.68
2023-04-09T22:39:24.789Z,50.58
2023-04-09T22:41:54.324Z,50.59
2023-04-09T22:44:23.610Z,51.09
2023-04-09T22:46:57.959Z,50.89
2023-04-09T22:49:29.168Z,51.81
2023-04-09T22:52:05.334Z,51.26
2023-04-09T22:54:34.552Z,50.83
2023-04-09T22:57:09.030Z,50.50
2023-04-09T22:59:40.616Z,50.50
2023-04-09T23:04:51.973Z,50.35
2023-04-09T23:07:22.856Z,50.47
2023-04-09T23:09:54.489Z,50.47
2023-04-09T23:12:28.686Z,50.42
2023-04-09T23:15:03.190Z,50.13
2023-04-09T23:17:37.724Z,50.06
2023-04-09T23:20:11.076Z,49.89
2023-04-09T23:22:45.541Z,49.65
2023-04-09T23:25:15.252Z,49.73
2023-04-09T23:27:44.976Z,49.52
2023-04-09T23:30:21.397Z,49.52
2023-04-09T23:32:52.181Z,49.91
2023-04-09T23:35:28.592Z,49.99
2023-04-09T23:37:57.841Z,50.06
2023-04-09T23:40:27.013Z,50.37
2023-04-09T23:42:56.735Z,50.64
2023-04-09T23:45:25.886Z,50.75
2023-04-09T23:48:00.251Z,50.52
2023-04-09T23:50:39.069Z,50.91
2023-04-09T23:55:44.952Z,50.75
2023-04-09T23:58:21.067Z,50.50
